createdAt,value
2023-01-31T00:01:17.839Z,97873.00
2023-01-31T00:03:45.398Z,97875.34
2023-01-31T00:06:14.911Z,97878.00
2023-01-31T00:08:42.774Z,97873.81
2023-01-31T00:11:10.436Z,97878.28
2023-01-31T00:13:38.333Z,97885.41
2023-01-31T00:16:06.242Z,97886.09
2023-01-31T00:18:33.537Z,97874.25
2023-01-31T00:21:17.928Z,97869.22
2023-01-31T00:23:45.874Z,97882.06
2023-01-31T00:26:17.526Z,97878.56
2023-01-31T00:28:45.273Z,97882.69
2023-01-31T00:31:13.291Z,97881.25
2023-01-31T00:33:41.907Z,97888.03
2023-01-31T00:36:10.691Z,97880.88
2023-01-31T00:38:38.913Z,97888.16
2023-01-31T00:41:06.213Z,97882.25
2023-01-31T00:43:34.786Z,97879.16
2023-01-31T00:46:03.002Z,97879.00
2023-01-31T00:48:30.360Z,97887.81
2023-01-31T00:50:57.709Z,97906.00
2023-01-31T00:53:25.857Z,97909.41
2023-01-31T00:55:54.090Z,97901.94
2023-01-31T00:58:21.708Z,97905.72
2023-01-31T01:00:49.160Z,97904.97
2023-01-31T01:03:17.479Z,97896.41
2023-01-31T01:05:44.756Z,97896.97
2023-01-31T01:08:11.974Z,97908.53
2023-01-31T01:10:39.593Z,97911.63
2023-01-31T01:13:06.933Z,97912.72
2023-01-31T01:15:37.532Z,97904.47
2023-01-31T01:18:04.900Z,97904.03
2023-01-31T01:20:32.337Z,97909.88
2023-01-31T01:22:59.897Z,97911.75
2023-01-31T01:25:27.574Z,97898.69
2023-01-31T01:27:54.792Z,97907.00
2023-01-31T01:30:22.017Z,97911.47
2023-01-31T01:32:49.213Z,97907.81
2023-01-31T01:35:16.528Z,97901.47
2023-01-31T01:37:43.771Z,97916.53
2023-01-31T01:40:11.557Z,97917.41
2023-01-31T01:42:38.934Z,97926.06
2023-01-31T01:45:16.060Z,97922.47
2023-01-31T01:47:44.605Z,97909.97
2023-01-31T01:50:11.990Z,97914.88
2023-01-31T01:52:42.086Z,97908.94
2023-01-31T01:55:36.245Z,97911.59
2023-01-31T01:58:08.263Z,97909.13
2023-01-31T02:00:37.221Z,97895.28
2023-01-31T02:03:06.813Z,97902.34
2023-01-31T02:05:40.495Z,97902.97
2023-01-31T02:08:07.910Z,97904.94
2023-01-31T02:10:42.199Z,97904.03
2023-01-31T02:13:10.183Z,97895.53
2023-01-31T02:15:37.890Z,97900.84
2023-01-31T02:18:05.799Z,97889.59
2023-01-31T02:20:46.198Z,97892.88
2023-01-31T02:23:19.549Z,97896.00
2023-01-31T02:25:50.010Z,97893.78
2023-01-31T02:28:36.005Z,97893.13
2023-01-31T02:31:16.606Z,97888.81
2023-01-31T02:33:49.445Z,97892.25
2023-01-31T02:36:39.943Z,97884.63
2023-01-31T02:39:16.381Z,97881.69
2023-01-31T02:41:50.194Z,97889.09
2023-01-31T02:44:44.930Z,97894.84
2023-01-31T02:47:22.154Z,97907.75
2023-01-31T02:49:55.011Z,97898.69
2023-01-31T02:52:34.637Z,97900.41
2023-01-31T02:55:45.039Z,97900.69
2023-01-31T02:58:15.454Z,97914.31
2023-01-31T03:00:45.735Z,97895.69
2023-01-31T03:03:18.162Z,97901.66
2023-01-31T03:05:45.428Z,97904.31
2023-01-31T03:08:16.421Z,97904.09
2023-01-31T03:11:04.751Z,97900.13
2023-01-31T03:13:35.308Z,97899.53
2023-01-31T03:16:21.431Z,97908.38
2023-01-31T03:19:01.609Z,97913.09
2023-01-31T03:21:38.745Z,97908.84
2023-01-31T03:24:07.344Z,97907.47
2023-01-31T03:26:35.662Z,97914.75
2023-01-31T03:29:04.185Z,97913.09
2023-01-31T03:31:32.836Z,97912.00
2023-01-31T03:34:04.079Z,97925.09
2023-01-31T03:36:48.075Z,97925.16
2023-01-31T03:39:39.039Z,97924.81
2023-01-31T03:42:28.894Z,97930.78
2023-01-31T03:45:01.839Z,97921.34
2023-01-31T03:47:33.074Z,97930.22
2023-01-31T03:50:02.847Z,97931.06
2023-01-31T03:52:33.843Z,97927.00
2023-01-31T03:55:07.208Z,97932.88
2023-01-31T03:57:36.721Z,97926.97
2023-01-31T04:00:06.138Z,97926.16
2023-01-31T04:02:42.720Z,97932.94
2023-01-31T04:05:14.819Z,97931.81
2023-01-31T04:07:44.625Z,97918.63
2023-01-31T04:10:20.452Z,97927.97
2023-01-31T04:12:47.933Z,97934.75
2023-01-31T04:15:15.958Z,97941.91
2023-01-31T04:17:43.209Z,97943.72
2023-01-31T04:20:10.939Z,97941.13
2023-01-31T04:22:38.394Z,97945.50
2023-01-31T04:25:06.100Z,97939.47
2023-01-31T04:27:33.393Z,97954.44
2023-01-31T04:30:02.907Z,97938.94
2023-01-31T04:32:30.325Z,97943.84
2023-01-31T04:34:57.763Z,97957.63
2023-01-31T04:37:25.045Z,97957.56
2023-01-31T04:39:52.286Z,97961.63
2023-01-31T04:42:21.578Z,97963.75
2023-01-31T04:44:48.971Z,97963.25
2023-01-31T04:47:16.234Z,97969.22
2023-01-31T04:49:44.368Z,97974.31
2023-01-31T04:52:11.702Z,97968.25
2023-01-31T04:54:38.899Z,97977.72
2023-01-31T04:57:06.685Z,97972.22
2023-01-31T04:59:33.913Z,97977.56
2023-01-31T05:02:01.123Z,97960.47
2023-01-31T05:04:28.396Z,97971.16
2023-01-31T05:06:55.752Z,97964.28
2023-01-31T05:09:23.049Z,97964.66
2023-01-31T05:11:50.353Z,97968.25
2023-01-31T05:14:17.916Z,97974.44
2023-01-31T05:16:47.425Z,97972.50
2023-01-31T05:19:15.993Z,97978.41
2023-01-31T05:21:55.394Z,97980.47
2023-01-31T05:24:22.834Z,97976.63
2023-01-31T05:26:51.703Z,97983.34
2023-01-31T05:29:19.172Z,97994.53
2023-01-31T05:31:46.749Z,97987.00
2023-01-31T05:34:16.165Z,97989.25
2023-01-31T05:36:43.397Z,97988.78
2023-01-31T05:39:10.698Z,97982.72
2023-01-31T05:41:37.982Z,97990.28
2023-01-31T05:44:05.359Z,97995.00
2023-01-31T05:46:32.780Z,97992.16
2023-01-31T05:49:00.060Z,97987.75
2023-01-31T05:51:27.385Z,97979.50
2023-01-31T05:53:55.133Z,97991.22
2023-01-31T05:56:22.610Z,97992.03
2023-01-31T05:58:51.126Z,97990.13
2023-01-31T06:01:20.223Z,97988.19
2023-01-31T06:03:48.766Z,97995.25
2023-01-31T06:06:16.397Z,97997.03
2023-01-31T06:08:43.834Z,98008.25
2023-01-31T06:11:12.157Z,98013.47
2023-01-31T06:13:40.376Z,98011.00
2023-01-31T06:16:07.670Z,98011.50
2023-01-31T06:18:34.846Z,98009.97
2023-01-31T06:21:02.160Z,98012.50
2023-01-31T06:23:29.681Z,98024.78
2023-01-31T06:25:57.126Z,98011.84
2023-01-31T06:28:24.400Z,98019.72
2023-01-31T06:30:51.690Z,98022.09
2023-01-31T06:33:19.046Z,98020.88
2023-01-31T06:35:46.291Z,98027.88
2023-01-31T06:38:13.648Z,98034.59
2023-01-31T06:40:42.948Z,98029.84
2023-01-31T06:43:10.185Z,98039.38
2023-01-31T06:45:38.014Z,98041.75
2023-01-31T06:48:05.257Z,98050.09
2023-01-31T06:50:35.264Z,98047.31
2023-01-31T06:53:02.573Z,98056.06
2023-01-31T06:55:30.375Z,98049.28
2023-01-31T06:57:57.745Z,98043.53
2023-01-31T07:00:25.844Z,98046.34
2023-01-31T07:02:56.841Z,98046.06
2023-01-31T07:05:24.515Z,98039.50
2023-01-31T07:07:51.708Z,98047.97
2023-01-31T07:10:18.988Z,98061.00
2023-01-31T07:12:46.262Z,98059.84
2023-01-31T07:15:13.981Z,98062.91
2023-01-31T07:17:41.440Z,98076.06
2023-01-31T07:20:08.998Z,98068.41
2023-01-31T07:22:36.501Z,98082.97
2023-01-31T07:25:03.982Z,98068.03
2023-01-31T07:27:31.266Z,98075.63
2023-01-31T07:29:58.648Z,98073.56
2023-01-31T07:32:29.898Z,98086.09
2023-01-31T07:34:57.214Z,98084.66
2023-01-31T07:37:24.473Z,98088.28
2023-01-31T07:39:51.998Z,98084.63
2023-01-31T07:42:19.993Z,98089.75
2023-01-31T07:44:49.556Z,98090.03
2023-01-31T07:47:17.117Z,98088.38
2023-01-31T07:49:44.578Z,98098.72
2023-01-31T07:52:11.836Z,98101.75
2023-01-31T07:54:39.105Z,98096.25
2023-01-31T07:57:06.421Z,98102.25
2023-01-31T07:59:33.829Z,98094.75
2023-01-31T08:02:19.707Z,98105.00
2023-01-31T08:04:47.693Z,98104.44
2023-01-31T08:07:15.068Z,98108.50
2023-01-31T08:09:43.826Z,98112.66
2023-01-31T08:12:11.242Z,98115.84
2023-01-31T08:14:38.492Z,98124.91
2023-01-31T08:17:08.451Z,98113.84
2023-01-31T08:19:36.093Z,98119.91
2023-01-31T08:22:04.719Z,98123.59
2023-01-31T08:24:32.923Z,98126.97
2023-01-31T08:27:00.798Z,98124.56
2023-01-31T08:29:28.046Z,98134.78
2023-01-31T08:31:55.495Z,98130.44
2023-01-31T08:34:23.668Z,98138.53
2023-01-31T08:36:50.914Z,98138.59
2023-01-31T08:39:18.324Z,98124.56
2023-01-31T08:41:46.063Z,98140.97
2023-01-31T08:44:14.004Z,98138.72
2023-01-31T08:46:42.143Z,98143.34
2023-01-31T08:49:12.769Z,98129.72
2023-01-31T08:51:40.317Z,98134.44
2023-01-31T08:54:18.584Z,98133.41
2023-01-31T08:56:48.240Z,98135.44
2023-01-31T08:59:16.741Z,98137.66
2023-01-31T09:01:46.779Z,98134.97
2023-01-31T09:04:14.151Z,98127.03
2023-01-31T09:06:43.271Z,98134.91
2023-01-31T09:09:12.191Z,98127.25
2023-01-31T09:11:39.819Z,98143.06
2023-01-31T09:14:07.040Z,98129.41
2023-01-31T09:16:34.377Z,98135.06
2023-01-31T09:19:01.703Z,98122.72
2023-01-31T09:21:29.955Z,98133.25
2023-01-31T09:23:59.317Z,98133.03
2023-01-31T09:26:26.725Z,98131.41
2023-01-31T09:28:54.426Z,98127.03
2023-01-31T09:31:21.671Z,98133.47
2023-01-31T09:33:49.203Z,98123.81
2023-01-31T09:36:17.985Z,98125.00
2023-01-31T09:38:45.687Z,98122.25
2023-01-31T09:41:19.675Z,98116.53
2023-01-31T09:43:50.668Z,98115.34
2023-01-31T09:46:19.609Z,98126.72
2023-01-31T09:48:49.316Z,98130.59
2023-01-31T09:51:19.378Z,98123.09
2023-01-31T09:53:47.438Z,98137.91
2023-01-31T09:56:35.909Z,98136.47
2023-01-31T09:59:21.845Z,98128.59
2023-01-31T10:01:52.292Z,98129.03
2023-01-31T10:04:19.943Z,98132.66
2023-01-31T10:06:47.218Z,98130.22
2023-01-31T10:09:23.947Z,98121.03
2023-01-31T10:12:04.276Z,98136.19
2023-01-31T10:14:34.724Z,98131.03
2023-01-31T10:17:17.576Z,98128.00
2023-01-31T10:19:52.185Z,98140.44
2023-01-31T10:22:26.176Z,98138.94
2023-01-31T10:24:57.598Z,98144.63
2023-01-31T10:27:41.311Z,98144.03
2023-01-31T10:30:14.996Z,98158.00
2023-01-31T10:32:45.391Z,98151.41
2023-01-31T10:35:16.365Z,98145.13
2023-01-31T10:37:46.978Z,98153.94
2023-01-31T10:40:16.459Z,98140.38
2023-01-31T10:42:49.943Z,98153.50
2023-01-31T10:45:20.409Z,98149.91
2023-01-31T10:47:52.890Z,98151.63
2023-01-31T10:50:26.308Z,98160.78
2023-01-31T10:53:02.089Z,98153.69
2023-01-31T10:55:29.300Z,98157.94
2023-01-31T10:58:09.060Z,98149.97
2023-01-31T11:04:29.779Z,98133.41
2023-01-31T11:06:58.702Z,98156.75
2023-01-31T11:09:28.202Z,98155.53
2023-01-31T11:11:57.639Z,98164.19
2023-01-31T11:14:24.919Z,98167.53
2023-01-31T11:17:18.558Z,98166.47
2023-01-31T11:19:50.609Z,98169.81
2023-01-31T11:22:30.804Z,98160.50
2023-01-31T11:24:59.470Z,98162.41
2023-01-31T11:27:30.396Z,98170.13
2023-01-31T11:30:00.314Z,98159.56
2023-01-31T11:32:29.781Z,98164.47
2023-01-31T11:34:58.587Z,98156.16
2023-01-31T11:37:27.060Z,98162.44
2023-01-31T11:40:03.061Z,98159.03
2023-01-31T11:42:30.722Z,98154.06
2023-01-31T11:45:00.362Z,98158.91
2023-01-31T11:47:39.836Z,98168.50
2023-01-31T11:50:08.142Z,98165.06
2023-01-31T11:52:35.606Z,98163.34
2023-01-31T11:55:08.460Z,98186.38
2023-01-31T11:57:37.067Z,98171.81
2023-01-31T12:00:07.846Z,98173.16
2023-01-31T12:02:42.263Z,98169.00
2023-01-31T12:05:11.129Z,98172.69
2023-01-31T12:07:57.436Z,98165.72
2023-01-31T12:10:30.681Z,98176.28
2023-01-31T12:13:17.650Z,98178.69
2023-01-31T12:16:06.282Z,98186.31
2023-01-31T12:18:39.809Z,98189.28
2023-01-31T12:21:13.313Z,98192.03
2023-01-31T12:23:44.356Z,98182.69
2023-01-31T12:26:21.911Z,98196.63
2023-01-31T12:29:00.114Z,98185.19
2023-01-31T12:31:27.349Z,98200.66
2023-01-31T12:34:15.372Z,98188.03
2023-01-31T12:36:45.428Z,98194.13
2023-01-31T12:39:26.465Z,98199.56
2023-01-31T12:42:14.627Z,98206.84
2023-01-31T12:44:41.888Z,98205.25
2023-01-31T12:47:16.253Z,98198.81
2023-01-31T12:49:58.815Z,98204.25
2023-01-31T12:52:35.591Z,98205.31
2023-01-31T12:55:18.643Z,98210.13
2023-01-31T12:58:16.927Z,98208.59
2023-01-31T13:00:55.859Z,98200.66
2023-01-31T13:03:42.048Z,98207.53
2023-01-31T13:06:15.897Z,98184.78
2023-01-31T13:09:01.518Z,98214.03
2023-01-31T13:11:36.798Z,98215.59
2023-01-31T13:14:05.480Z,98215.06
2023-01-31T13:16:37.455Z,98203.84
2023-01-31T13:19:06.929Z,98202.19
2023-01-31T13:21:39.383Z,98202.72
2023-01-31T13:24:15.712Z,98202.41
2023-01-31T13:26:44.577Z,98195.59
2023-01-31T13:29:19.100Z,98206.78
2023-01-31T13:31:57.336Z,98202.00
2023-01-31T13:34:29.450Z,98216.09
2023-01-31T13:37:07.731Z,98207.66
2023-01-31T13:39:43.692Z,98212.91
2023-01-31T13:42:15.338Z,98204.53
2023-01-31T13:44:43.389Z,98224.50
2023-01-31T13:47:20.844Z,98235.97
2023-01-31T13:49:50.937Z,98246.63
2023-01-31T13:52:25.514Z,98256.63
2023-01-31T13:55:00.344Z,98264.63
2023-01-31T13:57:31.174Z,98261.69
2023-01-31T14:00:07.876Z,98251.00
2023-01-31T14:02:35.387Z,98265.69
2023-01-31T14:05:25.437Z,98276.91
2023-01-31T14:08:11.374Z,98268.63
2023-01-31T14:10:43.021Z,98269.06
2023-01-31T14:13:33.330Z,98265.09
2023-01-31T14:16:00.844Z,98258.84
2023-01-31T14:18:46.299Z,98265.31
2023-01-31T14:21:32.428Z,98254.22
2023-01-31T14:24:04.178Z,98266.38
2023-01-31T14:26:50.519Z,98264.88
2023-01-31T14:29:21.053Z,98267.81
2023-01-31T14:31:49.241Z,98277.19
2023-01-31T14:34:36.771Z,98275.69
2023-01-31T14:37:07.077Z,98279.84
2023-01-31T14:39:42.253Z,98281.72
2023-01-31T14:42:24.670Z,98274.38
2023-01-31T14:45:04.422Z,98295.31
2023-01-31T14:47:37.902Z,98287.06
2023-01-31T14:50:14.468Z,98272.47
2023-01-31T14:52:48.832Z,98280.72
2023-01-31T14:55:22.726Z,98274.13
2023-01-31T14:57:53.129Z,98279.97
2023-01-31T15:00:26.086Z,98286.97
2023-01-31T15:02:58.754Z,98284.97
2023-01-31T15:05:33.492Z,98297.84
2023-01-31T15:08:02.465Z,98294.66
2023-01-31T15:10:48.587Z,98299.19
2023-01-31T15:13:34.781Z,98303.00
2023-01-31T15:16:04.385Z,98297.41
2023-01-31T15:18:31.809Z,98301.72
2023-01-31T15:21:01.369Z,98312.97
2023-01-31T15:23:30.302Z,98306.81
2023-01-31T15:25:59.022Z,98309.22
2023-01-31T15:28:28.586Z,98307.81
2023-01-31T15:31:00.513Z,98299.47
2023-01-31T15:33:57.074Z,98310.19
2023-01-31T15:36:30.712Z,98309.78
2023-01-31T15:39:00.939Z,98316.88
2023-01-31T15:41:41.224Z,98315.56
2023-01-31T15:44:28.349Z,98312.72
2023-01-31T15:46:57.160Z,98308.00
2023-01-31T15:49:39.488Z,98311.16
2023-01-31T15:52:20.914Z,98312.03
2023-01-31T15:54:52.542Z,98315.38
2023-01-31T15:57:20.914Z,98316.28
2023-01-31T15:59:48.817Z,98310.66
2023-01-31T16:02:34.215Z,98312.53
2023-01-31T16:05:04.881Z,98312.66
2023-01-31T16:07:32.159Z,98327.47
2023-01-31T16:10:02.173Z,98315.38
2023-01-31T16:12:31.933Z,98328.91
2023-01-31T16:15:03.106Z,98327.69
2023-01-31T16:17:31.217Z,98330.56
2023-01-31T16:19:58.569Z,98341.34
2023-01-31T16:22:27.483Z,98340.53
2023-01-31T16:24:56.165Z,98335.25
2023-01-31T16:27:24.057Z,98340.75
2023-01-31T16:29:53.496Z,98342.16
2023-01-31T16:32:20.855Z,98346.94
2023-01-31T16:34:54.987Z,98352.28
2023-01-31T16:37:33.533Z,98355.09
2023-01-31T16:40:04.653Z,98359.84
2023-01-31T16:42:33.376Z,98364.50
2023-01-31T16:45:01.593Z,98358.16
2023-01-31T16:47:46.994Z,98359.31
2023-01-31T16:50:17.360Z,98352.63
2023-01-31T16:52:46.715Z,98351.84
2023-01-31T16:55:15.297Z,98360.31
2023-01-31T16:57:42.536Z,98353.78
2023-01-31T17:00:31.516Z,98351.59
2023-01-31T17:02:59.629Z,98352.13
2023-01-31T17:05:38.363Z,98358.78
2023-01-31T17:08:05.986Z,98354.66
2023-01-31T17:10:34.324Z,98359.22
2023-01-31T17:13:04.056Z,98362.94
2023-01-31T17:15:31.238Z,98361.75
2023-01-31T17:17:59.065Z,98373.78
2023-01-31T17:20:26.573Z,98365.25
2023-01-31T17:23:02.378Z,98365.53
2023-01-31T17:25:34.751Z,98373.19
2023-01-31T17:28:02.317Z,98368.41
2023-01-31T17:30:30.632Z,98367.00
2023-01-31T17:32:58.223Z,98361.31
2023-01-31T17:35:25.571Z,98358.34
2023-01-31T17:37:52.801Z,98365.69
2023-01-31T17:40:20.138Z,98373.06
2023-01-31T17:42:47.543Z,98364.72
2023-01-31T17:45:15.721Z,98362.66
2023-01-31T17:47:44.100Z,98372.56
2023-01-31T17:50:17.133Z,98357.06
2023-01-31T17:52:44.775Z,98362.47
2023-01-31T17:55:12.528Z,98349.53
2023-01-31T17:57:40.618Z,98360.00
2023-01-31T18:00:11.000Z,98359.88
2023-01-31T18:02:38.535Z,98359.09
2023-01-31T18:05:06.115Z,98365.59
2023-01-31T18:07:34.679Z,98366.69
2023-01-31T18:10:01.871Z,98364.03
2023-01-31T18:12:30.286Z,98357.72
2023-01-31T18:14:57.522Z,98367.13
2023-01-31T18:17:24.927Z,98364.22
2023-01-31T18:19:52.129Z,98365.66
2023-01-31T18:22:24.079Z,98375.44
2023-01-31T18:24:51.343Z,98372.03
2023-01-31T18:27:18.973Z,98378.03
2023-01-31T18:29:46.186Z,98378.41
2023-01-31T18:32:13.345Z,98381.53
2023-01-31T18:34:40.531Z,98380.72
2023-01-31T18:37:13.159Z,98377.53
2023-01-31T18:39:42.516Z,98375.66
2023-01-31T18:42:09.713Z,98388.69
2023-01-31T18:44:36.978Z,98381.75
2023-01-31T18:47:04.284Z,98384.56
2023-01-31T18:49:32.411Z,98390.22
2023-01-31T18:51:59.619Z,98386.72
2023-01-31T18:54:26.961Z,98385.22
2023-01-31T18:56:54.183Z,98388.13
2023-01-31T18:59:21.445Z,98389.78
2023-01-31T19:01:48.779Z,98392.16
2023-01-31T19:04:16.208Z,98392.44
2023-01-31T19:06:44.490Z,98397.38
2023-01-31T19:09:12.707Z,98388.63
2023-01-31T19:11:43.505Z,98397.97
2023-01-31T19:14:12.043Z,98395.28
2023-01-31T19:16:40.572Z,98401.28
2023-01-31T19:19:08.400Z,98406.72
2023-01-31T19:21:36.341Z,98401.53
2023-01-31T19:24:11.617Z,98406.66
2023-01-31T19:26:38.898Z,98405.63
2023-01-31T19:29:09.320Z,98409.88
2023-01-31T19:31:37.171Z,98410.97
2023-01-31T19:34:06.178Z,98419.25
2023-01-31T19:36:35.223Z,98421.06
2023-01-31T19:39:06.997Z,98430.81
2023-01-31T19:41:34.469Z,98424.09
2023-01-31T19:44:01.948Z,98422.44
2023-01-31T19:46:30.994Z,98426.41
2023-01-31T19:48:58.836Z,98425.91
2023-01-31T19:51:26.939Z,98430.16
2023-01-31T19:53:55.539Z,98420.31
2023-01-31T19:56:24.370Z,98420.38
2023-01-31T19:58:51.716Z,98422.91
2023-01-31T20:01:19.390Z,98430.91
2023-01-31T20:03:46.617Z,98421.28
2023-01-31T20:06:16.089Z,98427.84
2023-01-31T20:08:43.360Z,98426.72
2023-01-31T20:11:13.079Z,98418.00
2023-01-31T20:13:40.497Z,98427.84
2023-01-31T20:16:09.249Z,98421.34
2023-01-31T20:18:37.381Z,98421.72
2023-01-31T20:21:05.586Z,98424.69
2023-01-31T20:23:33.112Z,98425.44
2023-01-31T20:26:01.597Z,98428.88
2023-01-31T20:28:28.817Z,98430.69
2023-01-31T20:30:56.335Z,98439.28
2023-01-31T20:33:28.648Z,98437.28
2023-01-31T20:35:55.887Z,98434.88
2023-01-31T20:38:23.187Z,98443.75
2023-01-31T20:40:51.480Z,98444.06
2023-01-31T20:43:19.124Z,98445.59
2023-01-31T20:45:46.516Z,98440.97
2023-01-31T20:48:14.161Z,98444.22
2023-01-31T20:50:43.815Z,98441.75
2023-01-31T20:53:17.988Z,98447.06
2023-01-31T20:55:58.446Z,98448.00
2023-01-31T20:58:26.855Z,98446.88
2023-01-31T21:00:54.760Z,98443.81
2023-01-31T21:03:22.383Z,98440.53
2023-01-31T21:05:50.393Z,98448.84
2023-01-31T21:08:18.488Z,98452.25
2023-01-31T21:10:52.311Z,98452.25
2023-01-31T21:13:20.206Z,98447.19
2023-01-31T21:15:49.249Z,98448.44
2023-01-31T21:18:16.893Z,98451.31
2023-01-31T21:20:44.252Z,98450.22
2023-01-31T21:23:11.564Z,98450.09
2023-01-31T21:25:38.840Z,98462.84
2023-01-31T21:28:06.152Z,98452.91
2023-01-31T21:30:33.407Z,98455.72
2023-01-31T21:33:00.644Z,98460.44
2023-01-31T21:35:27.909Z,98460.94
2023-01-31T21:37:55.128Z,98461.22
2023-01-31T21:40:22.685Z,98476.00
2023-01-31T21:42:54.083Z,98471.97
2023-01-31T21:45:39.836Z,98477.78
2023-01-31T21:48:26.902Z,98466.88
2023-01-31T21:50:54.443Z,98485.38
2023-01-31T21:53:22.004Z,98487.91
2023-01-31T21:55:49.255Z,98482.09
2023-01-31T21:58:16.561Z,98481.00
2023-01-31T22:00:44.294Z,98486.31
2023-01-31T22:03:11.669Z,98485.00
2023-01-31T22:05:38.883Z,98481.59
2023-01-31T22:08:06.130Z,98481.53
2023-01-31T22:10:33.358Z,98474.44
2023-01-31T22:13:00.542Z,98476.09
2023-01-31T22:15:27.836Z,98480.56
2023-01-31T22:17:55.092Z,98488.03
2023-01-31T22:20:22.629Z,98492.97
2023-01-31T22:22:50.129Z,98492.44
2023-01-31T22:25:17.379Z,98494.84
2023-01-31T22:27:47.468Z,98490.88
2023-01-31T22:30:16.443Z,98492.72
2023-01-31T22:32:44.125Z,98489.25
2023-01-31T22:35:11.413Z,98485.81
2023-01-31T22:37:38.672Z,98488.16
2023-01-31T22:40:06.172Z,98483.91
2023-01-31T22:42:33.522Z,98495.94
2023-01-31T22:45:00.891Z,98495.72
2023-01-31T22:47:29.858Z,98498.81
2023-01-31T22:49:57.051Z,98492.69
2023-01-31T22:52:24.265Z,98497.00
2023-01-31T22:54:51.458Z,98501.34
2023-01-31T22:57:18.637Z,98496.88
2023-01-31T22:59:45.830Z,98502.88
2023-01-31T23:02:13.086Z,98498.41
2023-01-31T23:04:40.392Z,98508.63
2023-01-31T23:07:10.638Z,98508.19
2023-01-31T23:09:37.923Z,98498.81
2023-01-31T23:12:05.351Z,98497.88
2023-01-31T23:14:32.548Z,98502.59
2023-01-31T23:17:18.308Z,98505.13
2023-01-31T23:19:45.618Z,98508.63
2023-01-31T23:22:14.201Z,98506.88
2023-01-31T23:24:41.388Z,98512.09
2023-01-31T23:27:09.688Z,98509.63
2023-01-31T23:29:37.010Z,98505.91
2023-01-31T23:32:04.326Z,98512.66
2023-01-31T23:34:31.576Z,98503.25
2023-01-31T23:36:58.955Z,98505.06
2023-01-31T23:39:26.205Z,98502.59
2023-01-31T23:41:53.461Z,98506.88
2023-01-31T23:44:20.649Z,98504.53
2023-01-31T23:46:47.828Z,98500.34
2023-01-31T23:49:15.103Z,98499.53
2023-01-31T23:51:42.423Z,98506.03
2023-01-31T23:54:10.638Z,98505.28
2023-01-31T23:56:37.847Z,98506.16
2023-01-31T23:59:05.170Z,98510.41
